Time;durP1;ratioP1;P1;durP2;ratioP2;P2;SDS_P1;SDS_P2;PMS_P1;PMS_P2;Temp;Humidity;BMP_temperature;BMP_pressure;BME280_temperature;BME280_humidity;BME280_pressure;Samples;Min_cycle;Max_cycle;Signal;HPM_P1;HPM_P2
2020/12/13 00:00:13;;;;;;;31.30;7.97;;;5.40;99.90;;;6.12;100.00;97116.03;5064992;28;20478;-82
2020/12/13 00:02:42;;;;;;;21.40;9.60;;;5.40;99.90;;;6.08;100.00;97115.59;5065561;28;20832;-82
2020/12/13 00:05:09;;;;;;;17.60;8.97;;;5.30;99.90;;;6.11;100.00;97115.22;5073368;28;20526;-82
2020/12/13 00:07:38;;;;;;;15.40;8.60;;;5.40;99.90;;;6.12;100.00;97126.41;5070543;28;21026;-82
2020/12/13 00:10:06;;;;;;;11.67;7.27;;;5.40;99.90;;;6.12;100.00;97124.63;5069430;28;20471;-82
2020/12/13 00:12:36;;;;;;;15.00;9.43;;;5.30;99.90;;;6.10;100.00;97124.00;5073250;28;21037;-82
2020/12/13 00:15:04;;;;;;;17.97;9.30;;;5.40;99.90;;;6.13;100.00;97133.22;5076143;28;20500;-82
2020/12/13 00:17:32;;;;;;;17.37;9.93;;;5.40;99.90;;;6.12;100.00;97132.41;5072635;28;20467;-82
2020/12/13 00:20:00;;;;;;;12.93;8.63;;;5.40;99.90;;;6.10;100.00;97138.78;5073977;28;20879;-82
2020/12/13 00:22:27;;;;;;;26.03;10.43;;;5.40;99.90;;;6.04;100.00;97140.28;5075513;28;20848;-82
2020/12/13 00:24:56;;;;;;;20.43;10.87;;;5.30;99.90;;;6.02;100.00;97147.47;5073286;28;20989;-82
2020/12/13 00:27:23;;;;;;;16.70;10.27;;;5.30;99.90;;;6.08;100.00;97136.34;5073414;28;20902;-82
2020/12/13 00:29:51;;;;;;;19.63;10.30;;;5.40;99.90;;;6.13;100.00;97148.78;5076880;28;20469;-82
2020/12/13 00:32:19;;;;;;;14.93;8.47;;;5.40;99.90;;;6.13;100.00;97147.00;5076635;28;20451;-82
2020/12/13 00:34:47;;;;;;;16.10;9.63;;;5.40;99.90;;;6.17;100.00;97145.66;5074310;28;20583;-82
2020/12/13 00:37:15;;;;;;;21.80;12.57;;;5.40;99.90;;;6.16;100.00;97149.22;5073333;28;20859;-82
2020/12/13 00:39:42;;;;;;;25.93;12.70;;;5.40;99.90;;;6.14;100.00;97151.22;5076298;28;20484;-82
2020/12/13 00:42:11;;;;;;;22.67;11.83;;;5.40;99.90;;;6.18;100.00;97149.84;5074505;28;20482;-83
2020/12/13 00:44:38;;;;;;;21.57;11.27;;;5.50;99.90;;;6.20;100.00;97152.28;5075792;28;20456;-82
2020/12/13 00:47:07;;;;;;;16.70;9.50;;;5.50;99.90;;;6.19;100.00;97148.06;5074393;28;20459;-82
2020/12/13 00:49:35;;;;;;;23.93;10.47;;;5.50;99.90;;;6.21;100.00;97159.09;5071820;28;20509;-82
2020/12/13 00:52:04;;;;;;;35.93;9.70;;;5.50;99.90;;;6.21;100.00;97161.69;5075191;28;20831;-82
2020/12/13 00:54:32;;;;;;;19.63;9.97;;;5.60;99.90;;;6.16;100.00;97157.03;5077342;28;20479;-82
2020/12/13 00:56:59;;;;;;;20.23;9.90;;;5.50;99.90;;;6.16;100.00;97156.22;5073232;28;20478;-82
2020/12/13 00:59:28;;;;;;;14.83;9.17;;;5.50;99.90;;;6.21;100.00;97157.28;5075174;28;20505;-82
2020/12/13 01:01:56;;;;;;;17.60;8.90;;;5.60;99.90;;;6.20;100.00;97153.09;5076953;28;20456;-82
2020/12/13 01:04:24;;;;;;;18.33;9.80;;;5.60;99.90;;;6.22;100.00;97160.66;5077425;28;20464;-81
2020/12/13 01:06:51;;;;;;;27.10;9.37;;;5.50;99.90;;;6.21;100.00;97156.50;5076670;28;20839;-82
2020/12/13 01:09:19;;;;;;;17.63;9.60;;;5.50;99.90;;;6.23;100.00;97170.88;5072704;28;20467;-82
2020/12/13 01:11:47;;;;;;;17.37;9.73;;;5.50;99.90;;;6.22;100.00;97182.25;5074605;28;20464;-82
2020/12/13 01:14:14;;;;;;;18.03;10.70;;;5.50;99.90;;;6.20;100.00;97186.81;5078710;28;21121;-82
2020/12/13 01:16:43;;;;;;;18.50;10.53;;;5.50;99.90;;;6.19;100.00;97180.00;5075653;28;20467;-82
2020/12/13 01:19:11;;;;;;;15.60;10.27;;;5.50;99.90;;;6.24;100.00;97185.47;5074125;28;20457;-82
2020/12/13 01:21:38;;;;;;;10.97;8.23;;;5.60;99.90;;;6.24;100.00;97192.47;5077689;28;20448;-82
2020/12/13 01:24:06;;;;;;;20.70;8.80;;;5.60;99.90;;;6.24;100.00;97193.28;5076897;28;20466;-82
2020/12/13 01:26:34;;;;;;;19.03;8.10;;;5.60;99.90;;;6.24;100.00;97195.88;5077979;28;20487;-82
2020/12/13 01:29:01;;;;;;;24.67;11.60;;;5.50;99.90;;;6.24;100.00;97197.66;5077124;28;20456;-82
2020/12/13 01:31:29;;;;;;;16.90;10.10;;;5.50;99.90;;;6.24;100.00;97203.66;5077658;28;20555;-82
2020/12/13 01:33:57;;;;;;;23.87;11.07;;;5.50;99.90;;;6.24;100.00;97203.66;5075151;28;20558;-82
2020/12/13 01:36:25;;;;;;;25.63;10.77;;;5.50;99.90;;;6.25;100.00;97210.44;5077748;28;20451;-82
2020/12/13 01:38:53;;;;;;;17.50;9.00;;;5.50;99.90;;;6.27;100.00;97208.47;5076919;28;20782;-81
2020/12/13 01:41:21;;;;;;;16.90;9.13;;;5.60;99.90;;;6.27;100.00;97205.06;5076321;28;20533;-82
2020/12/13 01:43:58;;;;;;;15.00;8.97;;;5.50;99.90;;;6.29;100.00;97214.28;5075429;28;20480;-82
2020/12/13 01:46:27;;;;;;;13.93;9.20;;;5.50;99.90;;;6.26;100.00;97212.06;5073299;28;20491;-82
2020/12/13 01:49:01;;;;;;;16.50;9.97;;;5.50;99.90;;;6.28;100.00;97215.25;5073730;28;20965;-82
2020/12/13 01:51:44;;;;;;;19.50;11.30;;;5.60;99.90;;;6.28;100.00;97220.44;5072762;28;20519;-82
2020/12/13 01:54:14;;;;;;;18.47;10.80;;;5.60;99.90;;;6.31;100.00;97222.72;5076116;28;21341;-82
2020/12/13 01:56:47;;;;;;;18.37;10.40;;;5.60;99.90;;;6.33;100.00;97225.91;5070647;28;20487;-82
2020/12/13 01:59:18;;;;;;;18.17;9.50;;;5.70;99.90;;;6.34;100.00;97232.72;5075666;28;21008;-82
2020/12/13 02:01:50;;;;;;;16.10;9.00;;;5.80;99.90;;;6.34;100.00;97230.13;5074196;28;20467;-82
2020/12/13 02:04:22;;;;;;;15.30;9.03;;;5.70;99.90;;;6.34;100.00;97235.34;5073769;28;20617;-82
2020/12/13 02:06:53;;;;;;;19.00;10.00;;;5.70;99.90;;;6.36;100.00;97238.53;5074930;28;20528;-82
2020/12/13 02:09:23;;;;;;;14.20;7.70;;;5.70;99.90;;;6.35;100.00;97249.91;5074449;28;20839;-82
2020/12/13 02:11:52;;;;;;;13.13;7.70;;;5.70;99.90;;;6.37;100.00;97249.72;5074253;28;20464;-82
2020/12/13 02:14:20;;;;;;;20.63;9.50;;;5.70;99.90;;;6.36;100.00;97251.53;5072490;28;20576;-82
2020/12/13 02:16:50;;;;;;;13.13;9.33;;;5.70;99.90;;;6.36;100.00;97261.91;5075328;28;21746;-82
2020/12/13 02:19:20;;;;;;;15.60;8.77;;;5.70;99.90;;;6.36;100.00;97254.13;5074063;28;20845;-82
2020/12/13 02:21:50;;;;;;;17.13;9.53;;;5.70;99.90;;;6.37;100.00;97263.53;5074525;28;20467;-82
2020/12/13 02:24:19;;;;;;;14.77;8.83;;;5.70;99.90;;;6.37;100.00;97258.34;5072340;28;20472;-82
2020/12/13 02:26:49;;;;;;;12.83;8.20;;;5.70;99.90;;;6.36;100.00;97261.09;5075623;28;20567;-82
2020/12/13 02:29:17;;;;;;;16.27;9.10;;;5.70;99.90;;;6.37;100.00;97255.72;5075233;28;20464;-82
2020/12/13 02:31:44;;;;;;;18.33;7.40;;;5.60;99.90;;;6.36;100.00;97259.31;5072220;28;20464;-82
2020/12/13 02:34:12;;;;;;;16.43;8.80;;;5.60;99.90;;;6.36;100.00;97263.69;5070974;28;20520;-82
2020/12/13 02:36:40;;;;;;;13.07;7.70;;;5.60;99.90;;;6.36;100.00;97267.09;5071769;28;20463;-82
2020/12/13 02:39:09;;;;;;;11.33;7.30;;;5.60;99.90;;;6.37;100.00;97260.94;5068941;28;20492;-82
2020/12/13 02:41:38;;;;;;;11.30;7.40;;;5.60;99.90;;;6.39;100.00;97274.53;5069770;28;20864;-82
2020/12/13 02:44:06;;;;;;;17.33;8.00;;;5.60;99.90;;;6.38;100.00;97269.53;5072818;28;20877;-82
2020/12/13 02:46:33;;;;;;;15.63;8.37;;;5.70;99.90;;;6.32;100.00;97278.81;5074764;28;20529;-82
2020/12/13 02:49:01;;;;;;;17.97;7.97;;;5.60;99.90;;;6.31;100.00;97281.63;5076956;28;20456;-82
2020/12/13 02:51:29;;;;;;;17.03;8.80;;;5.60;99.90;;;6.33;100.00;97295.22;5074391;28;20955;-82
2020/12/13 02:53:56;;;;;;;13.20;8.93;;;5.60;99.90;;;6.30;100.00;97296.38;5074061;28;20808;-82
2020/12/13 02:56:24;;;;;;;18.60;8.47;;;5.60;99.90;;;6.33;100.00;97298.63;5074267;28;20460;-82
2020/12/13 02:58:53;;;;;;;11.67;8.27;;;5.70;99.90;;;6.36;100.00;97292.25;5073591;28;20489;-83
2020/12/13 03:01:20;;;;;;;10.87;7.73;;;5.60;99.90;;;6.36;100.00;97300.84;5073878;28;20729;-82
2020/12/13 03:03:48;;;;;;;14.20;8.33;;;5.60;99.90;;;6.36;100.00;97311.22;5076090;28;20464;-82
2020/12/13 03:06:15;;;;;;;12.67;7.60;;;5.60;99.90;;;6.36;100.00;97321.63;5070587;28;20463;-82
2020/12/13 03:08:43;;;;;;;12.53;7.43;;;5.70;99.90;;;6.36;100.00;97324.22;5070353;28;20468;-82
2020/12/13 03:11:10;;;;;;;13.43;6.77;;;5.70;99.90;;;6.35;100.00;97325.19;5073035;28;20459;-82
2020/12/13 03:13:38;;;;;;;11.73;7.63;;;5.60;99.90;;;6.36;100.00;97324.22;5073738;28;20874;-82
2020/12/13 03:16:06;;;;;;;14.30;6.97;;;5.60;99.90;;;6.37;100.00;97333.63;5071859;28;20468;-82
2020/12/13 03:18:34;;;;;;;10.80;7.73;;;5.60;99.90;;;6.39;100.00;97339.44;5074805;28;20997;-82
2020/12/13 03:21:01;;;;;;;10.60;7.43;;;5.60;99.90;;;6.40;100.00;97333.28;5075285;28;20520;-82
2020/12/13 03:23:29;;;;;;;14.30;8.10;;;5.70;99.90;;;6.42;100.00;97335.69;5074042;28;20571;-82
2020/12/13 03:25:57;;;;;;;14.57;8.07;;;5.80;99.90;;;6.42;100.00;97331.28;5069564;28;20475;-82
2020/12/13 03:28:24;;;;;;;11.20;8.10;;;5.70;99.90;;;6.43;100.00;97335.50;5075276;28;20999;-82
2020/12/13 03:30:52;;;;;;;15.37;7.50;;;5.70;99.90;;;6.44;100.00;97326.75;5075021;28;20470;-82
2020/12/13 03:33:21;;;;;;;18.97;7.30;;;5.70;99.90;;;6.45;100.00;97336.16;5074934;28;20462;-82
2020/12/13 03:35:49;;;;;;;10.60;7.63;;;5.80;99.90;;;6.47;100.00;97338.56;5071739;28;20504;-82
2020/12/13 03:38:17;;;;;;;12.57;7.77;;;5.80;99.90;;;6.45;100.00;97343.13;5071698;28;20443;-82
2020/12/13 03:40:45;;;;;;;14.30;7.70;;;5.80;99.90;;;6.44;100.00;97344.91;5073090;28;20479;-82
2020/12/13 03:43:12;;;;;;;12.93;7.30;;;5.80;99.90;;;6.46;100.00;97348.13;5069013;28;20459;-82
2020/12/13 03:45:40;;;;;;;11.73;6.83;;;5.90;99.90;;;6.46;100.00;97348.13;5074138;28;20818;-82
2020/12/13 03:48:08;;;;;;;13.37;8.20;;;5.80;99.90;;;6.46;100.00;97347.31;5072412;28;20464;-82
2020/12/13 03:50:39;;;;;;;9.33;6.80;;;5.80;99.90;;;6.48;100.00;97356.56;5072127;28;20461;-82
2020/12/13 03:53:09;;;;;;;11.67;5.90;;;5.80;99.90;;;6.47;100.00;97360.13;5074090;28;20964;-82
2020/12/13 03:55:38;;;;;;;11.13;7.13;;;5.80;99.90;;;6.49;100.00;97347.75;5073373;28;20500;-82
2020/12/13 03:58:13;;;;;;;20.07;7.00;;;5.80;99.90;;;6.50;100.00;97348.56;5070756;28;20866;-82
2020/12/13 04:00:40;;;;;;;9.60;5.57;;;5.80;99.90;;;6.50;100.00;97359.78;5073404;28;20475;-82
2020/12/13 04:03:08;;;;;;;9.00;6.03;;;5.80;99.90;;;6.49;100.00;97363.34;5072534;28;20464;-82
2020/12/13 04:05:37;;;;;;;10.30;6.20;;;5.80;99.90;;;6.51;100.00;97360.59;5075505;28;20517;-82
2020/12/13 04:08:05;;;;;;;13.53;5.90;;;5.80;99.90;;;6.53;100.00;97364.59;5078681;28;20472;-82
2020/12/13 04:10:32;;;;;;;8.50;4.60;;;5.80;99.90;;;6.53;100.00;97362.00;5072319;28;20515;-82
2020/12/13 04:13:00;;;;;;;12.13;5.00;;;5.80;99.90;;;6.55;100.00;97362.66;5075662;28;20484;-82
2020/12/13 04:15:27;;;;;;;8.80;5.57;;;5.90;99.90;;;6.54;100.00;97363.63;5079368;28;20488;-82
2020/12/13 04:17:55;;;;;;;6.40;4.20;;;5.90;99.90;;;6.56;100.00;97363.44;5076652;28;20541;-83
2020/12/13 04:20:23;;;;;;;7.30;3.80;;;5.90;99.90;;;6.59;100.00;97368.31;5074660;28;20468;-82
2020/12/13 04:22:51;;;;;;;7.30;4.07;;;5.90;99.90;;;6.57;100.00;97378.84;5077246;28;20470;-82
2020/12/13 04:25:19;;;;;;;5.77;4.07;;;5.90;99.90;;;6.58;100.00;97379.66;5078864;28;20463;-81
2020/12/13 04:27:47;;;;;;;5.80;4.30;;;5.90;99.90;;;6.59;100.00;97379.47;5078571;28;20577;-82
2020/12/13 04:30:15;;;;;;;5.17;3.33;;;5.90;99.90;;;6.60;100.00;97388.06;5073752;28;20831;-82
2020/12/13 04:32:43;;;;;;;5.37;4.10;;;6.00;99.90;;;6.61;100.00;97392.28;5077209;28;20475;-82
2020/12/13 04:35:11;;;;;;;5.40;4.00;;;5.90;99.90;;;6.63;100.00;97395.50;5071872;28;20545;-82
2020/12/13 04:37:39;;;;;;;6.60;3.70;;;6.00;99.90;;;6.62;100.00;97393.91;5076779;28;20814;-82
2020/12/13 04:40:07;;;;;;;6.10;4.03;;;6.00;99.90;;;6.63;100.00;97398.09;5075488;28;20488;-82
2020/12/13 04:42:38;;;;;;;4.60;4.17;;;6.00;99.90;;;6.61;100.00;97401.88;5075153;28;20782;-82
2020/12/13 04:45:08;;;;;;;7.03;3.60;;;5.90;99.90;;;6.62;100.00;97401.72;5076538;28;20466;-82
2020/12/13 04:47:53;;;;;;;5.30;4.07;;;5.90;99.90;;;6.64;100.00;97396.31;5075372;28;20721;-82
2020/12/13 04:50:26;;;;;;;7.63;4.40;;;6.00;99.90;;;6.66;100.00;97392.59;5075699;28;20454;-82
2020/12/13 04:52:57;;;;;;;6.60;4.07;;;6.00;99.90;;;6.66;100.00;97399.56;5076321;28;20994;-83
2020/12/13 04:55:29;;;;;;;7.63;3.60;;;6.00;99.90;;;6.64;100.00;97397.13;5076056;28;20499;-82
2020/12/13 04:57:57;;;;;;;6.73;4.00;;;6.00;99.90;;;6.61;100.00;97399.28;5076433;28;20487;-82
2020/12/13 05:00:31;;;;;;;6.10;4.13;;;6.00;99.90;;;6.59;100.00;97410.63;5076182;28;20467;-82
2020/12/13 05:02:59;;;;;;;6.93;4.13;;;5.90;99.90;;;6.59;100.00;97408.03;5074778;28;20458;-82
2020/12/13 05:05:26;;;;;;;9.83;3.63;;;5.90;99.90;;;6.59;100.00;97418.44;5066440;28;20463;-82
2020/12/13 05:07:55;;;;;;;7.10;3.70;;;5.90;99.90;;;6.58;100.00;97410.84;5077562;28;20832;-81
2020/12/13 05:10:22;;;;;;;4.10;3.23;;;5.80;99.90;;;6.59;100.00;97422.84;5077569;28;20463;-82
2020/12/13 05:12:51;;;;;;;6.10;4.67;;;5.80;99.90;;;6.57;100.00;97427.41;5072770;28;20463;-82
2020/12/13 05:15:18;;;;;;;5.77;4.00;;;5.80;99.90;;;6.56;100.00;97415.38;5075251;28;20503;-82
2020/12/13 05:17:46;;;;;;;5.10;3.63;;;5.90;99.90;;;6.56;100.00;97426.59;5076213;28;20825;-82
2020/12/13 05:20:14;;;;;;;6.80;4.47;;;5.90;99.90;;;6.52;100.00;97420.16;5076843;28;20483;-82
2020/12/13 05:22:44;;;;;;;7.90;5.10;;;5.80;99.90;;;6.56;100.00;97431.78;5078189;28;21010;-82
2020/12/13 05:25:13;;;;;;;6.00;4.00;;;5.90;99.90;;;6.52;100.00;97433.13;5073984;28;20464;-82
2020/12/13 05:27:41;;;;;;;5.40;3.60;;;5.80;99.90;;;6.49;100.00;97438.66;5074412;28;20834;-82
2020/12/13 05:30:10;;;;;;;4.33;3.63;;;5.80;99.90;;;6.49;100.00;97441.25;5075943;28;20474;-82
2020/12/13 05:32:41;;;;;;;7.33;4.10;;;5.80;99.90;;;6.52;100.00;97446.13;5073183;28;20463;-82
2020/12/13 05:35:12;;;;;;;6.37;4.20;;;5.80;99.90;;;6.53;100.00;97447.72;5073697;28;20483;-81
2020/12/13 05:37:40;;;;;;;7.93;4.40;;;5.90;99.90;;;6.54;100.00;97448.53;5076184;28;20459;-82
2020/12/13 05:40:08;;;;;;;8.50;4.40;;;5.90;99.90;;;6.53;100.00;97463.31;5072121;28;20480;-82
2020/12/13 05:42:38;;;;;;;7.83;4.53;;;5.90;99.90;;;6.53;100.00;97463.31;5075177;28;20579;-82
2020/12/13 05:45:18;;;;;;;5.73;4.47;;;5.90;99.90;;;6.53;100.00;97472.88;5075736;28;20467;-82
2020/12/13 05:50:59;;;;;;;6.03;4.00;;;5.80;99.90;;;6.53;100.00;97484.06;5077580;28;20971;-82
2020/12/13 05:53:28;;;;;;;5.60;4.60;;;5.80;99.90;;;6.56;100.00;97481.13;5074175;28;20471;-82
2020/12/13 05:55:57;;;;;;;7.60;4.10;;;6.00;99.90;;;6.51;100.00;97480.88;5073245;28;20995;-82
2020/12/13 05:58:27;;;;;;;4.67;3.37;;;5.90;99.90;;;6.52;100.00;97481.66;5075381;28;20480;-83
2020/12/13 06:00:56;;;;;;;9.10;4.33;;;5.80;99.90;;;6.53;100.00;97491.06;5073871;28;20464;-82
2020/12/13 06:03:33;;;;;;;6.13;4.80;;;5.90;99.90;;;6.52;100.00;97492.88;5074694;28;20496;-82
2020/12/13 06:06:08;;;;;;;5.57;4.30;;;5.90;99.90;;;6.52;100.00;97487.69;5073429;28;20471;-84
2020/12/13 06:09:06;;;;;;;7.93;4.80;;;5.80;99.90;;;6.54;100.00;97496.09;5076096;28;20462;-82
2020/12/13 06:11:48;;;;;;;5.23;3.93;;;5.90;99.90;;;6.53;100.00;97504.03;5076786;28;20467;-82
2020/12/13 06:14:20;;;;;;;4.40;3.70;;;5.90;99.90;;;6.55;100.00;97502.91;5076847;28;20448;-82
2020/12/13 06:16:49;;;;;;;4.07;3.40;;;5.90;99.90;;;6.47;100.00;97497.78;5072072;28;20530;-82
2020/12/13 06:19:21;;;;;;;5.00;3.47;;;5.80;99.90;;;6.50;100.00;97499.19;5072077;28;20459;-82
2020/12/13 06:21:49;;;;;;;3.50;3.20;;;5.90;99.90;;;6.48;100.00;97496.78;5075233;28;20509;-82
2020/12/13 06:24:17;;;;;;;4.40;3.70;;;5.80;99.90;;;6.51;100.00;97491.25;5071271;28;20471;-82
2020/12/13 06:26:46;;;;;;;7.47;3.67;;;5.80;99.90;;;6.46;100.00;97501.34;5065021;28;20594;-82
2020/12/13 06:29:15;;;;;;;5.20;4.20;;;5.80;99.90;;;6.42;100.00;97513.06;5071704;28;20763;-82
2020/12/13 06:31:42;;;;;;;12.33;4.83;;;5.60;99.90;;;6.44;100.00;97511.09;5072866;28;20464;-82
2020/12/13 06:34:10;;;;;;;7.90;3.90;;;5.70;99.90;;;6.44;100.00;97516.31;5069493;28;20600;-82
2020/12/13 06:36:39;;;;;;;5.50;3.17;;;5.70;99.90;;;6.45;100.00;97514.50;5077434;28;20521;-81
2020/12/13 06:39:12;;;;;;;4.60;3.33;;;5.70;99.90;;;6.48;100.00;97516.75;5076706;28;20463;-82
2020/12/13 06:41:43;;;;;;;4.23;3.10;;;5.70;99.90;;;6.40;100.00;97520.22;5077351;28;20645;-82
2020/12/13 06:44:12;;;;;;;6.03;3.90;;;5.70;99.90;;;6.42;100.00;97531.22;5075633;28;20502;-82
2020/12/13 06:46:42;;;;;;;5.53;4.13;;;5.70;99.90;;;6.43;100.00;97527.66;5074262;28;20443;-82
2020/12/13 06:49:12;;;;;;;6.33;4.07;;;5.70;99.90;;;6.44;100.00;97526.69;5070402;28;20454;-82
2020/12/13 06:51:43;;;;;;;4.60;3.60;;;5.80;99.90;;;6.45;100.00;97535.28;5070240;28;20464;-81
2020/12/13 06:54:14;;;;;;;5.50;3.63;;;5.80;99.90;;;6.46;100.00;97539.47;5072204;28;20440;-82
2020/12/13 06:56:43;;;;;;;5.00;3.90;;;5.80;99.90;;;6.40;100.00;97546.19;5072576;28;20506;-82
2020/12/13 06:59:12;;;;;;;11.73;4.37;;;5.80;99.90;;;6.38;100.00;97542.97;5071644;28;20555;-82
2020/12/13 07:01:42;;;;;;;6.30;3.60;;;5.70;99.90;;;6.39;100.00;97552.34;5072568;28;20449;-82
2020/12/13 07:04:34;;;;;;;8.60;4.43;;;5.70;99.90;;;6.39;100.00;97556.72;5071108;28;20452;-81
2020/12/13 07:07:07;;;;;;;6.03;3.83;;;5.60;99.90;;;6.39;100.00;97554.94;5070968;28;20464;-84
2020/12/13 07:09:34;;;;;;;19.90;6.17;;;5.70;99.90;;;6.43;100.00;97550.22;5073245;28;20472;-81
2020/12/13 07:12:03;;;;;;;5.20;3.70;;;5.80;99.90;;;6.42;100.00;97554.59;5074884;28;20497;-81
2020/12/13 07:14:34;;;;;;;8.83;4.00;;;5.70;99.90;;;6.43;100.00;97556.22;5074424;28;20461;-81
2020/12/13 07:17:05;;;;;;;5.50;4.07;;;5.70;99.90;;;6.45;100.00;97559.47;5073102;28;20463;-81
2020/12/13 07:19:35;;;;;;;6.33;3.63;;;5.80;99.90;;;6.46;100.00;97565.44;5072480;28;21029;-81
2020/12/13 07:22:08;;;;;;;4.50;3.00;;;5.90;99.90;;;6.47;100.00;97567.88;5074273;28;20524;-81
2020/12/13 07:24:42;;;;;;;9.00;3.77;;;5.80;99.90;;;6.47;100.00;97572.28;5072636;28;20504;-81
2020/12/13 07:27:11;;;;;;;3.50;2.97;;;5.90;99.90;;;6.49;100.00;97565.13;5070642;28;20510;-81
2020/12/13 07:29:39;;;;;;;3.40;3.10;;;5.90;99.90;;;6.49;100.00;97576.31;5070392;28;20467;-82
2020/12/13 07:32:07;;;;;;;3.50;2.93;;;5.90;99.90;;;6.50;100.00;97579.72;5071945;28;20475;-82
2020/12/13 07:34:36;;;;;;;3.03;2.53;;;5.90;99.90;;;6.49;100.00;97584.09;5072683;28;20467;-82
2020/12/13 07:37:05;;;;;;;3.33;2.77;;;5.80;99.90;;;6.47;100.00;97578.28;5070869;28;20463;-81
2020/12/13 07:39:32;;;;;;;3.43;2.50;;;5.80;99.90;;;6.47;100.00;97583.47;5074557;28;20479;-81
2020/12/13 07:42:08;;;;;;;5.10;2.90;;;5.80;99.90;;;6.48;100.00;97598.09;5072793;28;20517;-81
2020/12/13 07:44:36;;;;;;;7.97;2.53;;;5.80;99.90;;;6.48;100.00;97599.88;5074109;28;20478;-81
2020/12/13 07:47:04;;;;;;;7.07;2.60;;;5.80;99.90;;;6.43;100.00;97608.16;5072522;28;20452;-81
2020/12/13 07:49:32;;;;;;;3.10;2.50;;;5.70;99.90;;;6.41;100.00;97609.31;5072881;28;20465;-81
2020/12/13 07:51:59;;;;;;;2.60;2.07;;;5.70;99.90;;;6.40;100.00;97613.69;5074354;28;20468;-81
2020/12/13 07:54:30;;;;;;;2.10;1.83;;;5.70;99.90;;;6.39;100.00;97614.66;5071230;28;20463;-81
2020/12/13 07:57:02;;;;;;;3.03;2.40;;;5.70;99.90;;;6.42;100.00;97611.72;5074317;28;20834;-81
2020/12/13 07:59:30;;;;;;;2.37;2.13;;;5.80;99.90;;;6.44;100.00;97614.97;5070876;28;20487;-81
2020/12/13 08:01:59;;;;;;;2.93;2.50;;;5.80;99.90;;;6.45;100.00;97627.00;5071646;28;20471;-81
2020/12/13 08:04:33;;;;;;;2.63;2.00;;;5.80;99.90;;;6.45;100.00;97623.59;5074098;28;20472;-82
2020/12/13 08:07:02;;;;;;;3.10;2.20;;;5.80;99.90;;;6.43;100.00;97636.72;5075920;28;20451;-81
2020/12/13 08:09:30;;;;;;;2.33;2.13;;;5.80;99.90;;;6.40;100.00;97629.28;5075380;28;20554;-81
2020/12/13 08:11:58;;;;;;;5.70;2.27;;;5.70;99.90;;;6.43;100.00;97639.31;5075170;28;21001;-81
2020/12/13 08:14:27;;;;;;;2.37;2.17;;;5.70;99.90;;;6.42;100.00;97645.47;5074171;28;20456;-81
2020/12/13 08:16:57;;;;;;;2.87;1.87;;;5.70;99.90;;;6.37;100.00;97640.00;5074613;28;20899;-81
2020/12/13 08:19:33;;;;;;;2.93;2.30;;;5.60;99.90;;;6.34;100.00;97649.94;5075544;28;20975;-81
2020/12/13 08:22:06;;;;;;;2.50;2.00;;;5.60;99.90;;;6.41;100.00;97658.66;5072261;28;20451;-81
2020/12/13 08:24:35;;;;;;;2.33;2.13;;;5.70;99.90;;;6.43;100.00;97651.50;5071635;28;20467;-82
2020/12/13 08:27:03;;;;;;;2.40;2.20;;;5.70;99.90;;;6.48;100.00;97657.00;5070509;28;20494;-81
2020/12/13 08:29:33;;;;;;;4.13;2.30;;;5.80;99.90;;;6.49;100.00;97654.22;5071708;28;20464;-81
2020/12/13 08:32:23;;;;;;;2.40;2.07;;;5.80;99.90;;;6.45;100.00;97654.75;5071137;28;20504;-81
2020/12/13 08:34:51;;;;;;;3.20;2.90;;;5.80;99.90;;;6.46;100.00;97659.75;5073122;28;20478;-81
2020/12/13 08:37:25;;;;;;;2.67;2.40;;;5.80;99.90;;;6.44;100.00;97651.34;5070910;28;20478;-81
2020/12/13 08:39:54;;;;;;;2.37;1.93;;;5.80;99.90;;;6.50;100.00;97661.03;5071619;28;21049;-81
2020/12/13 08:42:25;;;;;;;3.03;2.57;;;5.80;99.90;;;6.53;100.00;97665.06;5070134;28;20463;-81
2020/12/13 08:44:53;;;;;;;5.50;3.07;;;5.90;99.90;;;6.55;100.00;97671.72;5072194;28;20498;-81
2020/12/13 08:47:30;;;;;;;3.90;2.30;;;5.90;99.90;;;6.54;100.00;97669.28;5072042;28;20968;-82
2020/12/13 08:50:02;;;;;;;9.33;2.50;;;5.90;99.90;;;6.55;100.00;97671.72;5071636;28;20980;-84
2020/12/13 08:52:36;;;;;;;4.47;3.20;;;6.00;99.90;;;6.59;100.00;97674.81;5079413;28;20846;-81
2020/12/13 08:55:05;;;;;;;2.80;2.30;;;6.00;99.90;;;6.62;100.00;97674.44;5075360;28;20475;-81
2020/12/13 08:57:36;;;;;;;3.87;2.23;;;6.00;99.90;;;6.64;100.00;97672.47;5073403;28;20514;-81
2020/12/13 09:00:11;;;;;;;3.93;2.90;;;6.00;99.90;;;6.68;100.00;97678.13;5076186;28;20490;-82
2020/12/13 09:02:56;;;;;;;4.70;2.80;;;6.10;99.90;;;6.70;100.00;97682.19;5079580;28;20462;-81
2020/12/13 09:05:29;;;;;;;5.33;2.93;;;6.10;99.90;;;6.72;100.00;97679.44;5077889;28;21052;-81
2020/12/13 09:07:58;;;;;;;6.40;2.90;;;6.10;99.90;;;6.75;100.00;97686.88;5076628;28;20444;-81
2020/12/13 09:10:37;;;;;;;5.20;3.30;;;6.10;99.90;;;6.77;100.00;97690.13;5079204;28;20544;-82
2020/12/13 09:13:07;;;;;;;9.90;3.23;;;6.10;99.90;;;6.79;100.00;97696.75;5077576;28;20811;-82
2020/12/13 09:15:35;;;;;;;3.67;2.90;;;6.20;99.90;;;6.79;100.00;97693.34;5078458;28;20984;-82
2020/12/13 09:18:04;;;;;;;5.03;3.53;;;6.20;99.90;;;6.83;100.00;97694.63;5075004;28;20475;-81
2020/12/13 09:20:34;;;;;;;7.30;4.00;;;6.30;99.90;;;6.85;100.00;97698.66;5075760;28;20814;-81
2020/12/13 09:23:13;;;;;;;3.83;3.00;;;6.40;99.90;;;6.86;100.00;97702.06;5072918;28;20647;-81
2020/12/13 09:25:44;;;;;;;4.03;3.33;;;6.30;99.90;;;6.88;100.00;97707.91;5074663;28;20483;-81
2020/12/13 09:28:15;;;;;;;5.83;3.47;;;6.30;99.90;;;6.85;100.00;97705.66;5077919;28;20881;-81
2020/12/13 09:30:44;;;;;;;5.37;3.63;;;6.20;99.90;;;6.89;100.00;97706.94;5076324;28;20459;-81
2020/12/13 09:33:15;;;;;;;5.70;3.40;;;6.30;99.90;;;6.96;100.00;97719.06;5076761;28;21060;-82
2020/12/13 09:35:43;;;;;;;7.93;3.80;;;6.50;99.90;;;6.99;100.00;97717.91;5077327;28;20566;-82
2020/12/13 09:38:14;;;;;;;4.87;3.20;;;6.50;99.90;;;7.01;100.00;97723.75;5077674;28;20477;-82
2020/12/13 09:40:43;;;;;;;4.13;2.90;;;6.50;99.90;;;7.02;100.00;97728.75;5077422;28;20476;-82
2020/12/13 09:43:11;;;;;;;5.27;3.47;;;6.50;99.90;;;7.04;100.00;97732.03;5077382;28;20916;-82
2020/12/13 09:45:38;;;;;;;4.13;3.40;;;6.50;99.90;;;7.05;100.00;97730.19;5077371;28;20445;-81
2020/12/13 09:48:06;;;;;;;5.47;3.80;;;6.50;99.90;;;7.05;100.00;97727.59;5077636;28;20805;-82
2020/12/13 09:50:33;;;;;;;5.53;3.87;;;6.50;99.90;;;7.07;100.00;97728.25;5076663;28;20451;-82
2020/12/13 09:53:01;;;;;;;12.03;4.30;;;6.50;99.90;;;7.08;100.00;97733.25;5077721;28;20502;-81
2020/12/13 09:55:29;;;;;;;10.43;4.20;;;6.50;99.90;;;7.13;100.00;97730.16;5077502;28;20487;-82
2020/12/13 09:57:57;;;;;;;4.83;3.63;;;6.60;99.90;;;7.17;100.00;97735.81;5076523;28;21078;-82
2020/12/13 10:00:26;;;;;;;5.87;3.73;;;6.60;99.90;;;7.18;100.00;97732.25;5077428;28;20454;-82
2020/12/13 10:02:54;;;;;;;4.93;3.60;;;6.60;99.90;;;7.18;100.00;97732.25;5077056;28;20509;-82
2020/12/13 10:05:25;;;;;;;5.07;4.27;;;6.60;99.90;;;7.21;100.00;97737.09;5075403;28;20467;-82
2020/12/13 10:10:38;;;;;;;5.90;3.60;;;6.60;99.90;;;7.23;100.00;97735.94;5076970;28;20907;-82
2020/12/13 10:13:07;;;;;;;5.50;3.90;;;6.70;99.90;;;7.25;100.00;97730.56;5071301;28;20463;-82
2020/12/13 10:15:34;;;;;;;4.10;3.70;;;6.80;99.90;;;7.25;100.00;97736.59;5073990;28;20791;-82
2020/12/13 10:18:02;;;;;;;8.23;3.80;;;6.70;99.90;;;7.29;100.00;97737.06;5076398;28;20459;-82
2020/12/13 10:20:30;;;;;;;4.57;3.60;;;6.80;99.90;;;7.32;100.00;97728.91;5071564;28;20470;-83
2020/12/13 10:22:57;;;;;;;5.17;3.97;;;6.80;99.90;;;7.34;100.00;97732.94;5076816;28;20466;-82
2020/12/13 10:25:25;;;;;;;7.20;4.70;;;6.90;99.90;;;7.31;100.00;97733.28;5073456;28;20475;-83
2020/12/13 10:27:53;;;;;;;7.83;4.37;;;6.80;99.90;;;7.34;100.00;97722.53;5072914;28;20548;-82
2020/12/13 10:30:21;;;;;;;4.20;3.63;;;6.80;99.90;;;7.38;100.00;97734.22;5073472;28;20464;-82
2020/12/13 10:32:49;;;;;;;7.90;3.63;;;6.80;99.90;;;7.39;100.00;97729.81;5075015;28;20823;-82
2020/12/13 10:35:17;;;;;;;11.73;3.80;;;6.80;99.90;;;7.38;100.00;97731.59;5072602;28;20474;-82
2020/12/13 10:37:44;;;;;;;8.23;4.20;;;6.90;99.90;;;7.40;100.00;97737.44;5071450;28;21027;-82